createdAt,value
2023-04-27T04:02:33.434Z,85.46
2023-04-27T04:05:00.081Z,85.75
2023-04-27T04:07:26.677Z,86.02
2023-04-27T04:09:53.404Z,85.96
2023-04-27T04:12:19.922Z,86.11
2023-04-27T04:14:48.934Z,86.35
2023-04-27T04:17:15.589Z,86.45
2023-04-27T04:19:42.208Z,86.61
2023-04-27T04:22:08.712Z,86.63
2023-04-27T04:24:35.239Z,86.76
2023-04-27T04:27:09.528Z,86.93
2023-04-27T04:29:46.757Z,86.92
2023-04-27T04:32:17.707Z,87.01
2023-04-27T04:34:51.073Z,87.33
2023-04-27T04:37:18.573Z,87.71
2023-04-27T04:39:45.896Z,87.76
2023-04-27T04:42:12.691Z,87.58
2023-04-27T04:44:39.672Z,87.57
2023-04-27T04:47:06.816Z,87.10
2023-04-27T04:49:33.558Z,87.20
2023-04-27T04:52:00.662Z,87.29
2023-04-27T04:54:27.742Z,86.81
2023-04-27T04:56:54.308Z,86.83
2023-04-27T04:59:20.994Z,87.01
2023-04-27T05:01:47.618Z,86.69
2023-04-27T05:04:14.945Z,86.63
2023-04-27T05:06:41.567Z,86.52
2023-04-27T05:09:08.117Z,86.41
2023-04-27T05:11:35.025Z,86.38
2023-04-27T05:14:01.569Z,86.22
2023-04-27T05:16:28.200Z,85.62
2023-04-27T05:18:54.831Z,85.78
2023-04-27T05:21:22.208Z,85.39
2023-04-27T05:23:49.319Z,84.80
2023-04-27T05:26:17.476Z,84.23
2023-04-27T05:28:44.457Z,84.57
2023-04-27T05:31:11.068Z,83.37
2023-04-27T05:33:37.633Z,82.94
2023-04-27T05:36:05.096Z,83.51
2023-04-27T05:38:33.733Z,83.40
2023-04-27T05:41:00.639Z,82.86
2023-04-27T05:43:27.264Z,82.85
2023-04-27T05:45:53.861Z,82.25
2023-04-27T05:48:21.366Z,82.15
2023-04-27T05:50:47.928Z,81.98
2023-04-27T05:53:14.472Z,81.37
2023-04-27T05:55:41.078Z,80.14
2023-04-27T05:58:09.203Z,80.05
2023-04-27T06:00:36.754Z,79.78
2023-04-27T06:03:03.741Z,79.45
2023-04-27T06:05:30.635Z,79.23
2023-04-27T06:07:57.825Z,78.78
2023-04-27T06:10:25.505Z,78.34
2023-04-27T06:12:52.105Z,78.07
2023-04-27T06:15:18.806Z,77.54
2023-04-27T06:17:45.986Z,76.43
2023-04-27T06:20:13.673Z,76.07
2023-04-27T06:22:40.412Z,75.46
2023-04-27T06:25:07.869Z,75.15
2023-04-27T06:27:35.224Z,73.65
2023-04-27T06:30:01.834Z,73.39
2023-04-27T06:32:28.538Z,72.34
2023-04-27T06:34:55.146Z,70.85
2023-04-27T06:37:21.670Z,70.05
2023-04-27T06:39:48.341Z,69.18
2023-04-27T06:42:14.915Z,68.58
2023-04-27T06:44:41.490Z,66.54
2023-04-27T06:47:08.143Z,67.85
2023-04-27T06:49:34.659Z,66.73
2023-04-27T06:52:02.927Z,66.87
2023-04-27T06:54:29.693Z,66.06
2023-04-27T06:56:56.464Z,64.25
2023-04-27T06:59:23.165Z,63.48
2023-04-27T07:01:51.836Z,62.46
2023-04-27T07:04:18.646Z,61.12
2023-04-27T07:06:45.559Z,60.78
2023-04-27T07:09:24.051Z,60.57
2023-04-27T07:11:54.256Z,60.44
2023-04-27T07:14:21.073Z,61.96
2023-04-27T07:16:47.819Z,60.73
2023-04-27T07:19:14.682Z,59.76
2023-04-27T07:21:41.543Z,59.82
2023-04-27T07:24:08.263Z,60.24
2023-04-27T07:26:35.104Z,59.30
2023-04-27T07:29:14.667Z,58.79
2023-04-27T07:31:51.385Z,58.68
2023-04-27T07:34:18.888Z,58.00
2023-04-27T07:36:45.828Z,57.60
2023-04-27T07:39:12.879Z,58.23
2023-04-27T07:41:39.785Z,59.06
2023-04-27T07:44:06.495Z,56.75
2023-04-27T07:46:33.103Z,55.62
2023-04-27T07:49:00.080Z,55.94
2023-04-27T07:51:28.803Z,55.55
2023-04-27T07:53:55.775Z,55.06
2023-04-27T07:56:22.401Z,54.52
2023-04-27T07:58:48.922Z,54.44
2023-04-27T08:01:15.801Z,55.23
2023-04-27T08:03:42.573Z,56.80
2023-04-27T08:06:09.703Z,56.66
2023-04-27T08:08:36.837Z,57.24
2023-04-27T08:11:03.769Z,56.60
2023-04-27T08:13:30.753Z,56.15
2023-04-27T08:15:59.244Z,55.62
2023-04-27T08:18:27.395Z,53.44
2023-04-27T08:20:54.521Z,54.21
2023-04-27T08:23:21.292Z,55.23
2023-04-27T08:25:48.641Z,55.04
2023-04-27T08:28:16.010Z,55.45
2023-04-27T08:30:42.904Z,54.37
2023-04-27T08:33:09.609Z,54.18
2023-04-27T08:35:36.479Z,53.13
2023-04-27T08:38:02.989Z,53.23
2023-04-27T08:40:29.654Z,53.74
2023-04-27T08:42:57.985Z,54.26
2023-04-27T08:45:25.877Z,53.01
2023-04-27T08:47:52.707Z,50.48
2023-04-27T08:50:20.326Z,51.11
2023-04-27T08:52:48.026Z,51.34
2023-04-27T08:55:16.735Z,50.60
2023-04-27T08:57:54.271Z,49.12
2023-04-27T09:00:21.131Z,48.95
2023-04-27T09:02:48.961Z,49.10
2023-04-27T09:05:17.238Z,49.37
2023-04-27T09:07:56.393Z,50.59
2023-04-27T09:10:23.337Z,51.26
2023-04-27T09:12:59.609Z,50.35
2023-04-27T09:15:26.447Z,49.78
2023-04-27T09:17:55.340Z,49.03
2023-04-27T09:20:22.616Z,48.76
2023-04-27T09:22:51.827Z,47.94
2023-04-27T09:25:28.534Z,49.22
2023-04-27T09:27:56.550Z,47.14
2023-04-27T09:30:23.175Z,47.18
2023-04-27T09:32:59.367Z,46.17
2023-04-27T09:35:28.133Z,45.64
2023-04-27T09:37:55.693Z,45.81
2023-04-27T09:40:28.111Z,45.70
2023-04-27T09:42:56.903Z,45.86
2023-04-27T09:45:24.812Z,43.86
2023-04-27T09:47:51.559Z,43.97
2023-04-27T09:50:18.511Z,45.28
2023-04-27T09:52:46.443Z,45.11
2023-04-27T09:55:24.512Z,43.76
2023-04-27T09:58:09.155Z,42.69
2023-04-27T10:00:48.398Z,43.02
2023-04-27T10:03:40.520Z,42.85
2023-04-27T10:06:27.337Z,41.61
2023-04-27T10:08:54.219Z,42.21
2023-04-27T10:11:20.803Z,41.63
2023-04-27T10:13:55.404Z,40.84
2023-04-27T10:16:22.904Z,41.94
2023-04-27T10:18:55.064Z,40.96
2023-04-27T10:21:22.346Z,40.84
2023-04-27T10:23:51.234Z,40.68
2023-04-27T10:26:28.404Z,40.63
2023-04-27T10:29:07.789Z,40.70
2023-04-27T10:31:35.475Z,38.75
2023-04-27T10:34:11.879Z,39.29
2023-04-27T10:36:40.902Z,37.91
2023-04-27T10:39:47.647Z,38.08
2023-04-27T10:42:28.461Z,37.46
2023-04-27T10:44:57.751Z,39.09
2023-04-27T10:47:24.885Z,37.95
2023-04-27T10:49:57.118Z,37.06
2023-04-27T10:52:23.634Z,37.22
2023-04-27T10:54:50.190Z,37.23
2023-04-27T10:57:16.726Z,37.51
2023-04-27T10:59:52.373Z,37.30
2023-04-27T11:02:26.905Z,35.36
2023-04-27T11:04:53.646Z,37.65
2023-04-27T11:07:28.395Z,36.24
2023-04-27T11:09:55.627Z,34.30
2023-04-27T11:12:22.480Z,34.92
2023-04-27T11:14:49.307Z,35.24
2023-04-27T11:17:15.899Z,35.30
2023-04-27T11:19:47.481Z,35.20
2023-04-27T11:22:18.396Z,35.06
2023-04-27T11:24:52.684Z,37.38
2023-04-27T11:27:22.216Z,36.97
2023-04-27T11:29:48.903Z,36.21
2023-04-27T11:32:20.307Z,35.71
2023-04-27T11:34:55.196Z,36.08
2023-04-27T11:37:25.336Z,34.73
2023-04-27T11:39:54.299Z,34.26
2023-04-27T11:42:24.374Z,34.76
2023-04-27T11:44:56.894Z,35.63
2023-04-27T11:47:25.224Z,35.30
2023-04-27T11:49:55.400Z,34.69
2023-04-27T11:52:23.121Z,34.98
2023-04-27T11:54:51.142Z,34.71
2023-04-27T11:57:17.774Z,33.69
2023-04-27T11:59:44.461Z,32.99
2023-04-27T12:02:11.159Z,32.22
2023-04-27T12:04:38.003Z,33.10
2023-04-27T12:07:05.351Z,31.26
2023-04-27T12:09:32.181Z,30.74
2023-04-27T12:11:58.777Z,31.47
2023-04-27T12:14:26.038Z,32.41
2023-04-27T12:16:52.907Z,33.03
2023-04-27T12:19:19.555Z,34.57
2023-04-27T12:21:46.746Z,35.27
2023-04-27T12:24:13.526Z,34.78
2023-04-27T12:26:40.211Z,34.82
2023-04-27T12:29:07.204Z,34.61
2023-04-27T12:31:34.052Z,33.23
2023-04-27T12:34:00.862Z,33.21
2023-04-27T12:36:27.635Z,33.14
2023-04-27T12:39:00.169Z,34.23
2023-04-27T12:41:26.712Z,34.25
2023-04-27T12:43:53.326Z,34.13
2023-04-27T12:46:19.959Z,34.32
2023-04-27T12:48:46.752Z,35.25
2023-04-27T12:51:13.443Z,33.46
2023-04-27T12:53:40.062Z,35.09
2023-04-27T12:56:06.960Z,34.80
2023-04-27T12:58:33.565Z,35.00
2023-04-27T13:01:00.132Z,35.97
2023-04-27T13:03:27.039Z,35.01
2023-04-27T13:05:55.366Z,34.49
2023-04-27T13:08:21.938Z,34.95
2023-04-27T13:10:48.576Z,35.24
2023-04-27T13:13:15.205Z,35.38
2023-04-27T13:15:43.021Z,35.72
2023-04-27T13:18:10.443Z,34.87
2023-04-27T13:20:37.944Z,36.19
2023-04-27T13:23:05.391Z,36.60
2023-04-27T13:25:31.928Z,36.09
2023-04-27T13:27:58.577Z,35.23
2023-04-27T13:30:25.177Z,36.16
2023-04-27T13:32:53.196Z,35.69
2023-04-27T13:35:21.320Z,35.38
2023-04-27T13:37:48.131Z,36.17
2023-04-27T13:40:14.905Z,33.90
2023-04-27T13:42:41.738Z,34.76
2023-04-27T13:45:08.778Z,35.41
2023-04-27T13:47:38.233Z,35.38
2023-04-27T13:50:10.046Z,35.08
2023-04-27T13:52:37.810Z,35.82
2023-04-27T13:55:06.643Z,35.94
2023-04-27T13:57:35.192Z,35.92
2023-04-27T14:00:01.974Z,36.52
2023-04-27T14:02:29.494Z,36.52
2023-04-27T14:04:57.042Z,36.90
2023-04-27T14:07:23.748Z,36.86
2023-04-27T14:09:50.646Z,36.67
2023-04-27T14:12:17.461Z,37.45
2023-04-27T14:14:44.017Z,38.19
2023-04-27T14:17:10.755Z,38.54
2023-04-27T14:19:37.365Z,37.63
2023-04-27T14:22:06.290Z,37.93
2023-04-27T14:24:32.900Z,37.65
2023-04-27T14:26:59.659Z,36.87
2023-04-27T14:29:26.644Z,36.89
2023-04-27T14:31:53.422Z,37.56
2023-04-27T14:34:21.574Z,37.62
2023-04-27T14:36:48.354Z,38.21
2023-04-27T14:39:15.363Z,38.18
2023-04-27T14:41:42.527Z,37.63
2023-04-27T14:44:09.103Z,37.38
2023-04-27T14:46:36.876Z,36.79
2023-04-27T14:49:04.343Z,35.69
2023-04-27T14:51:32.693Z,36.85
2023-04-27T14:53:59.417Z,37.45
2023-04-27T14:56:26.154Z,38.47
2023-04-27T14:58:52.856Z,38.16
2023-04-27T15:01:19.461Z,36.97
2023-04-27T15:03:46.343Z,38.56
2023-04-27T15:06:13.870Z,38.41
2023-04-27T15:08:40.539Z,39.25
2023-04-27T15:11:07.103Z,39.35
2023-04-27T15:13:33.632Z,39.21
2023-04-27T15:16:04.940Z,40.06
2023-04-27T15:18:32.098Z,40.03
2023-04-27T15:20:59.803Z,39.87
2023-04-27T15:23:27.698Z,40.06
2023-04-27T15:25:56.002Z,40.14
2023-04-27T15:28:23.171Z,40.51
2023-04-27T15:30:49.795Z,39.54
2023-04-27T15:33:17.124Z,39.79
2023-04-27T15:35:43.878Z,39.98
2023-04-27T15:38:12.194Z,39.47
2023-04-27T15:40:39.990Z,39.36
2023-04-27T15:43:06.920Z,40.04
2023-04-27T15:45:33.609Z,40.04
2023-04-27T15:48:00.327Z,40.85
2023-04-27T15:50:27.060Z,40.73
2023-04-27T15:52:53.887Z,41.09
2023-04-27T15:55:21.049Z,40.69
2023-04-27T15:57:47.592Z,41.10
2023-04-27T16:00:16.360Z,40.79
2023-04-27T16:02:43.556Z,40.89
2023-04-27T16:05:11.712Z,41.39
2023-04-27T16:07:39.838Z,41.15
2023-04-27T16:10:07.408Z,41.17
2023-04-27T16:12:34.317Z,41.63
2023-04-27T16:15:01.078Z,42.52
2023-04-27T16:17:31.909Z,41.85
2023-04-27T16:19:58.502Z,42.06
2023-04-27T16:22:25.074Z,41.30
2023-04-27T16:24:51.652Z,41.72
2023-04-27T16:27:20.177Z,42.31
2023-04-27T16:29:47.865Z,42.68
2023-04-27T16:32:14.507Z,43.09
2023-04-27T16:34:41.772Z,42.03
2023-04-27T16:37:08.345Z,42.03
2023-04-27T16:39:34.930Z,42.31
2023-04-27T16:42:01.933Z,42.52
2023-04-27T16:44:28.564Z,42.07
2023-04-27T16:46:55.822Z,42.29
2023-04-27T16:49:22.438Z,42.81
2023-04-27T16:51:49.052Z,43.41
2023-04-27T16:54:18.722Z,44.25
2023-04-27T16:56:45.982Z,44.02
2023-04-27T16:59:14.961Z,44.23
2023-04-27T17:01:41.878Z,44.12
2023-04-27T17:04:09.692Z,44.10
2023-04-27T17:06:36.409Z,44.00
2023-04-27T17:09:03.339Z,43.92
2023-04-27T17:11:30.055Z,44.59
2023-04-27T17:13:57.610Z,44.93
2023-04-27T17:16:24.352Z,45.03
2023-04-27T17:18:51.100Z,45.12
2023-04-27T17:21:18.287Z,45.58
2023-04-27T17:23:46.714Z,45.63
2023-04-27T17:26:16.260Z,45.82
2023-04-27T17:28:42.769Z,45.91
2023-04-27T17:31:09.588Z,46.23
2023-04-27T17:33:36.375Z,46.71
2023-04-27T17:36:02.983Z,46.76
2023-04-27T17:38:30.290Z,46.78
2023-04-27T17:40:56.979Z,47.72
2023-04-27T17:43:23.628Z,47.42
2023-04-27T17:45:50.681Z,47.71
2023-04-27T17:48:17.680Z,47.67
2023-04-27T17:50:44.328Z,47.60
2023-04-27T17:53:11.059Z,47.92
2023-04-27T17:55:37.687Z,48.56
2023-04-27T17:58:06.300Z,48.56
2023-04-27T18:00:33.465Z,48.60
2023-04-27T18:03:00.636Z,48.09
2023-04-27T18:05:27.540Z,48.68
2023-04-27T18:07:54.092Z,48.38
2023-04-27T18:10:20.785Z,48.31
2023-04-27T18:12:47.381Z,49.13
2023-04-27T18:15:14.318Z,48.93
2023-04-27T18:17:41.158Z,48.92
2023-04-27T18:20:10.130Z,49.27
2023-04-27T18:22:40.088Z,49.57
2023-04-27T18:25:08.452Z,49.92
2023-04-27T18:27:37.405Z,49.92
2023-04-27T18:30:05.944Z,50.07
2023-04-27T18:32:34.397Z,50.32
2023-04-27T18:35:01.077Z,50.19
2023-04-27T18:37:27.613Z,50.29
2023-04-27T18:39:54.225Z,50.09
2023-04-27T18:42:20.852Z,50.43
2023-04-27T18:44:48.088Z,50.80
2023-04-27T18:47:14.626Z,50.77
2023-04-27T18:49:41.167Z,50.72
2023-04-27T18:52:11.309Z,51.08
2023-04-27T18:54:38.697Z,51.03
2023-04-27T18:57:05.418Z,51.07
2023-04-27T18:59:32.019Z,50.90
2023-04-27T19:01:58.892Z,50.92
2023-04-27T19:04:26.109Z,51.39
2023-04-27T19:06:52.776Z,51.22
2023-04-27T19:09:19.320Z,51.27
2023-04-27T19:11:49.389Z,51.95
2023-04-27T19:14:20.210Z,52.22
2023-04-27T19:16:47.392Z,52.45
2023-04-27T19:19:14.224Z,52.45
2023-04-27T19:21:42.062Z,52.76
2023-04-27T19:24:09.209Z,52.68
2023-04-27T19:26:36.533Z,52.90
2023-04-27T19:29:03.130Z,53.03
2023-04-27T19:31:29.992Z,52.78
2023-04-27T19:36:30.151Z,53.40
2023-04-27T19:38:57.485Z,53.73
2023-04-27T19:41:25.142Z,53.75
2023-04-27T19:43:51.844Z,54.10
2023-04-27T19:46:18.362Z,54.90
2023-04-27T19:48:45.044Z,55.06
2023-04-27T19:51:11.761Z,55.25
2023-04-27T19:53:38.712Z,55.67
2023-04-27T19:56:05.400Z,55.85
2023-04-27T19:58:32.061Z,56.01
2023-04-27T20:00:58.625Z,56.08
2023-04-27T20:03:25.425Z,55.90
2023-04-27T20:05:52.664Z,55.99
2023-04-27T20:08:19.458Z,55.97
2023-04-27T20:10:46.084Z,55.89
2023-04-27T20:13:13.282Z,55.84
2023-04-27T20:15:39.893Z,55.93
2023-04-27T20:18:06.539Z,55.87
2023-04-27T20:20:33.150Z,55.97
2023-04-27T20:22:59.659Z,56.15
2023-04-27T20:25:26.258Z,56.21
2023-04-27T20:27:52.832Z,56.08
2023-04-27T20:30:19.485Z,56.40
2023-04-27T20:32:46.646Z,56.63
2023-04-27T20:35:13.377Z,56.64
2023-04-27T20:37:41.927Z,56.64
2023-04-27T20:40:13.451Z,57.18
2023-04-27T20:42:40.928Z,57.10
2023-04-27T20:45:11.300Z,57.25
2023-04-27T20:47:38.233Z,57.46
2023-04-27T20:50:06.297Z,57.40
2023-04-27T20:52:34.514Z,57.21
2023-04-27T20:55:01.790Z,57.56
2023-04-27T20:57:28.389Z,57.49
2023-04-27T20:59:54.940Z,57.35
2023-04-27T21:02:21.662Z,57.33
2023-04-27T21:04:48.319Z,57.59
2023-04-27T21:07:15.044Z,57.78
2023-04-27T21:09:41.719Z,57.82
2023-04-27T21:12:09.023Z,58.05
2023-04-27T21:14:35.928Z,58.04
2023-04-27T21:17:02.714Z,58.13
2023-04-27T21:19:30.280Z,58.34
2023-04-27T21:21:57.023Z,57.91
2023-04-27T21:24:23.831Z,57.96
2023-04-27T21:26:50.920Z,58.37
2023-04-27T21:29:17.422Z,58.34
2023-04-27T21:31:43.997Z,58.57
2023-04-27T21:34:10.701Z,58.51
2023-04-27T21:36:37.381Z,58.59
2023-04-27T21:39:04.077Z,58.56
2023-04-27T21:41:30.967Z,58.70
2023-04-27T21:43:57.650Z,58.43
2023-04-27T21:46:24.342Z,58.39
2023-04-27T21:48:51.142Z,58.63
2023-04-27T21:51:17.674Z,58.63
2023-04-27T21:53:44.209Z,58.45
2023-04-27T21:56:10.797Z,58.90
2023-04-27T21:58:37.440Z,58.87
